Nantucket Memorial Airport
KACK : now visible

Airfield :











YOU CAN JOIN US ON...

 
LOGIN :

Register | Disclaimer

   EN    FR    IT 

 









Legend :    VFR   Marginal VFR   IFR   Intensive IFR   Very Intensive IFR
Visi :
Ceiling :
>= 8 km
>= 3000ft
5 to 8 km
1000 to 3000 ft
1500m to 5 km
500 to 1000 ft
800 to 1500m
200 to 500 ft
< 800m
< 200 ft
Symbols :   Thunderstorms  Fog  Heavy snow  Heavy precipitations  Wind > 20 kt






- Airport Elevation : 47 ft
- IATA code : ACK


KACK - Nantucket Memorial

CURRENT METAR :
  • 110453Z AUTO 32009KT FEW025 OVC033 07/06 A3003 RMK AO2 RAE31 SLP169 P0001 T00720061 401280072

EXPIRED METARs :
  • 110424Z AUTO 33009KT -RA SCT005 SCT010 OVC025 08/07 A3003 RMK AO2 P0001 T00780067
  • 110353Z AUTO 34016KT -RA OVC005 08/07 A3000 RMK AO2 PK WND 30028/0334 WSHFT 0328 RAB13 CIG 004V010 SLP158 P0003 T00830072
  • 110342Z AUTO 32020G28KT -RA BKN005 BKN010 OVC035 09/08 A3000 RMK AO2 PK WND 30028/0334 WSHFT 0328 RAB13 P0002 T00890078
  • 110331Z AUTO 27014G21KT -RA FEW006 BKN010 OVC039 11/09 A2999 RMK AO2 RAB13 P0002 T01060094
  • 110301Z AUTO 25008KT OVC037 11/09 A2995 RMK AO2 T01060094
  • 110253Z AUTO 25008KT BKN029 OVC038 10/09 A2994 RMK AO2 SLP139 T01000089 51010
  • 110235Z AUTO 24007KT R24/6000VP6000FT BKN015 OVC035 10/09 A2993 RMK AO2 T01000089
  • 110221Z AUTO 24007KT R24/4500V6000FT FEW002 BKN018 OVC035 10/09 A2993 RMK AO2 T01000089
  • 110213Z AUTO 23006KT R24/5000VP6000FT SCT002 BKN010 OVC035 10/09 A2993 RMK AO2 T01000089
  • 110200Z AUTO 23007KT BKN003 OVC030 10/09 A2993 RMK AO2 T01000094
  • 110153Z 24008KT 1 1/2SM BR OVC003 11/09 A2993 RMK AO2 SLP135 T01060094

TAF KACK
Valid from the 11 at 00:00 until the 12 at 00:00 UTC


102320Z 1100/1124 23011KT 1/2SM FG VV002
FM110300 27011G18KT 4SM -RA BR OVC010
FM111000 34012G20KT 3SM -RASN BR OVC008
FM111300 34012KT 1 1/2SM -SN BR OVC008
FM111900 32008KT P6SM VCSH BKN015
FM112200 29007KT P6SM SCT150



MET'MAP, your aeronautical weather chart ! - Copyright ORBIFLY December 2007 - Disclaimer

ORBIFLY MET'MAP TEAM :

Programming & Development : Alexandra Zaïnal
Concept & original design : Baudouin d'Aumeries
Assistance for programming : Marc-Olivier Méhu
Technical & hardware support : Manuel Goepfert

Contact : metmap@orbifly.com




SOURCES & CREDITS :

   NOAA       Earth
Advisory